Ramla, Israel
Current Conditions -  °F | °C
As of 1:20 PM on Monday 26 Jan 2015 (Local Time) from LLBG Reporting Station
Clear Clear  
Wind Chill: 70°   Ceiling: Unl
Heat Index: 70°   Visibility: 6mi
Dew Point: 43°   Wind: 6mph
Humidity: 38%   Direction: 350°N
Pressure: 30.09"   Gusts: NA
Location:  31.93°N, 34.86°E
Report Text: LLBG 261020Z 35005KT CAVOK 21/06 Q1019 NOSIG RMK SCT100
Loading
Personal Weather Stations






























Interactive Weather Map New forecast layout! Learn more

10-Day Weather Forecast

Advertisements
Track Severe Weather on mobile